createdAt,value
2019-05-26T00:00:10.098Z,93789.11
2019-05-26T00:02:39.861Z,93782.48
2019-05-26T00:05:09.659Z,93780.73
2019-05-26T00:07:39.232Z,93782.94
2019-05-26T00:10:10.490Z,93783.53
2019-05-26T00:12:40.173Z,93780.05
2019-05-26T00:15:10.307Z,93775.87
2019-05-26T00:17:39.814Z,93781.24
2019-05-26T00:20:09.556Z,93781.95
2019-05-26T00:22:39.061Z,93780.82
2019-05-26T00:25:09.089Z,93777.43
2019-05-26T00:27:38.762Z,93767.04
2019-05-26T00:30:09.124Z,93771.25
2019-05-26T00:32:38.710Z,93769.09
2019-05-26T00:35:08.956Z,93770.40
2019-05-26T00:37:49.359Z,93770.69
2019-05-26T00:40:10.624Z,93767.23
2019-05-26T00:42:40.128Z,93768.50
2019-05-26T00:45:10.102Z,93765.61
2019-05-26T00:47:39.837Z,93767.54
2019-05-26T00:50:09.968Z,93765.66
2019-05-26T00:52:39.594Z,93761.70
2019-05-26T00:55:09.611Z,93765.22
2019-05-26T00:57:39.174Z,93757.42
2019-05-26T01:00:10.491Z,93758.87
2019-05-26T01:02:40.197Z,93758.05
2019-05-26T01:05:10.161Z,93753.78
2019-05-26T01:07:39.718Z,93754.56
2019-05-26T01:10:10.127Z,93752.52
2019-05-26T01:12:39.638Z,93752.42
2019-05-26T01:15:10.756Z,93756.28
2019-05-26T01:17:41.311Z,93756.45
2019-05-26T01:20:11.125Z,93750.81
2019-05-26T01:22:40.625Z,93749.98
2019-05-26T01:25:10.362Z,93753.70
2019-05-26T01:27:39.851Z,93752.11
2019-05-26T01:30:10.248Z,93752.20
2019-05-26T01:32:40.821Z,93755.20
2019-05-26T01:35:12.235Z,93756.69
2019-05-26T01:37:43.164Z,93751.27
2019-05-26T01:40:13.108Z,93752.05
2019-05-26T01:42:42.670Z,93750.50
2019-05-26T01:45:12.313Z,93757.69
2019-05-26T01:47:41.809Z,93752.17
2019-05-26T01:50:14.516Z,93753.73
2019-05-26T01:52:43.975Z,93752.55
2019-05-26T01:55:13.540Z,93749.69
2019-05-26T01:57:43.051Z,93751.83
2019-05-26T02:00:13.209Z,93749.67
2019-05-26T02:02:42.688Z,93757.36
2019-05-26T02:05:12.335Z,93754.89
2019-05-26T02:07:41.825Z,93751.88
2019-05-26T02:10:11.510Z,93750.60
2019-05-26T02:12:41.002Z,93756.84
2019-05-26T02:15:11.717Z,93753.72
2019-05-26T02:17:41.210Z,93753.95
2019-05-26T02:20:10.944Z,93749.20
2019-05-26T02:22:40.432Z,93742.10
2019-05-26T02:25:10.988Z,93741.44
2019-05-26T02:27:40.467Z,93742.03
2019-05-26T02:30:11.393Z,93740.98
2019-05-26T02:32:40.958Z,93743.60
2019-05-26T02:35:12.393Z,93741.55
2019-05-26T02:37:41.867Z,93741.80
2019-05-26T02:40:13.456Z,93745.40
2019-05-26T02:42:43.015Z,93741.67
2019-05-26T02:45:18.048Z,93742.47
2019-05-26T02:47:47.600Z,93742.50
2019-05-26T02:50:18.307Z,93741.21
2019-05-26T02:52:47.875Z,93747.17
2019-05-26T02:55:18.325Z,93740.74
2019-05-26T02:57:48.058Z,93747.23
2019-05-26T03:00:56.655Z,93741.97
2019-05-26T03:03:26.224Z,93744.77
2019-05-26T03:05:56.486Z,93747.84
2019-05-26T03:08:26.398Z,93741.32
2019-05-26T03:10:58.332Z,93744.80
2019-05-26T03:13:28.861Z,93747.36
2019-05-26T03:16:00.275Z,93747.48
2019-05-26T03:18:32.407Z,93746.36
2019-05-26T03:21:04.287Z,93746.66
2019-05-26T03:23:33.917Z,93749.38
2019-05-26T03:26:03.766Z,93749.95
2019-05-26T03:28:33.276Z,93750.26
2019-05-26T03:31:02.866Z,93755.27
2019-05-26T03:33:32.406Z,93752.99
2019-05-26T03:36:01.911Z,93757.53
2019-05-26T03:38:31.397Z,93756.17
2019-05-26T03:41:00.901Z,93756.61
2019-05-26T03:43:30.456Z,93759.87
2019-05-26T03:46:13.220Z,93767.03
2019-05-26T03:48:42.775Z,93762.70
2019-05-26T03:51:13.099Z,93757.65
2019-05-26T03:53:42.734Z,93759.77
2019-05-26T03:56:12.353Z,93757.33
2019-05-26T03:58:41.847Z,93757.59
2019-05-26T04:01:11.424Z,93757.22
2019-05-26T04:03:40.900Z,93760.13
2019-05-26T04:06:10.471Z,93757.09
2019-05-26T04:08:40.046Z,93761.19
2019-05-26T04:11:09.531Z,93756.30
2019-05-26T04:13:39.054Z,93755.02
2019-05-26T04:16:08.543Z,93760.13
2019-05-26T04:18:38.029Z,93758.66
2019-05-26T04:21:07.607Z,93759.47
2019-05-26T04:23:37.168Z,93766.97
2019-05-26T04:26:06.809Z,93759.11
2019-05-26T04:28:36.308Z,93761.97
2019-05-26T04:31:06.288Z,93764.85
2019-05-26T04:33:35.772Z,93764.02
2019-05-26T04:36:05.267Z,93767.94
2019-05-26T04:38:35.828Z,93766.27
2019-05-26T04:41:05.388Z,93768.48
2019-05-26T04:43:34.896Z,93763.61
2019-05-26T04:46:05.674Z,93762.16
2019-05-26T04:48:35.176Z,93763.27
2019-05-26T04:51:04.744Z,93762.18
2019-05-26T04:53:34.302Z,93763.20
2019-05-26T04:56:03.863Z,93766.42
2019-05-26T04:58:33.354Z,93773.23
2019-05-26T05:01:02.905Z,93767.86
2019-05-26T05:03:32.405Z,93770.92
2019-05-26T05:06:01.897Z,93775.65
2019-05-26T05:08:31.399Z,93773.14
2019-05-26T05:11:01.159Z,93780.52
2019-05-26T05:13:30.665Z,93781.86
2019-05-26T05:16:00.147Z,93774.78
2019-05-26T05:18:29.654Z,93779.16
2019-05-26T05:20:59.155Z,93783.47
2019-05-26T05:23:28.667Z,93784.61
2019-05-26T05:25:58.196Z,93782.23
2019-05-26T05:28:27.734Z,93783.33
2019-05-26T05:30:57.201Z,93782.65
2019-05-26T05:33:27.065Z,93789.30
2019-05-26T05:35:56.557Z,93792.61
2019-05-26T05:38:26.073Z,93792.78
2019-05-26T05:40:59.836Z,93800.60
2019-05-26T05:43:26.763Z,93795.72
2019-05-26T05:45:56.247Z,93794.09
2019-05-26T05:48:25.761Z,93795.52
2019-05-26T05:50:55.241Z,93796.14
2019-05-26T05:53:24.756Z,93796.66
2019-05-26T05:55:55.309Z,93794.78
2019-05-26T05:58:24.801Z,93797.98
2019-05-26T06:00:54.306Z,93794.58
2019-05-26T06:03:23.789Z,93792.83
2019-05-26T06:05:53.293Z,93790.55
2019-05-26T06:08:22.782Z,93791.50
2019-05-26T06:10:52.294Z,93788.20
2019-05-26T06:13:21.782Z,93788.45
2019-05-26T06:15:51.358Z,93795.38
2019-05-26T06:18:20.870Z,93797.67
2019-05-26T06:20:50.368Z,93794.69
2019-05-26T06:23:19.859Z,93795.83
2019-05-26T06:25:49.371Z,93791.78
2019-05-26T06:28:18.863Z,93795.74
2019-05-26T06:30:48.438Z,93791.69
2019-05-26T06:33:17.927Z,93792.62
2019-05-26T06:35:47.434Z,93785.97
2019-05-26T06:38:16.984Z,93786.84
2019-05-26T06:40:46.504Z,93784.09
2019-05-26T06:43:15.987Z,93786.31
2019-05-26T06:45:45.484Z,93788.39
2019-05-26T06:48:14.970Z,93794.84
2019-05-26T06:50:44.496Z,93788.69
2019-05-26T06:53:14.065Z,93791.23
2019-05-26T06:55:43.564Z,93791.73
2019-05-26T06:58:13.045Z,93794.34
2019-05-26T07:00:42.619Z,93798.41
2019-05-26T07:03:12.092Z,93800.28
2019-05-26T07:05:41.606Z,93802.81
2019-05-26T07:08:11.091Z,93804.64
2019-05-26T07:10:40.597Z,93811.06
2019-05-26T07:13:10.088Z,93809.95
2019-05-26T07:15:39.601Z,93811.59
2019-05-26T07:18:09.159Z,93811.08
2019-05-26T07:20:38.674Z,93816.61
2019-05-26T07:23:09.050Z,93815.62
2019-05-26T07:25:39.137Z,93819.28
2019-05-26T07:28:08.710Z,93822.63
2019-05-26T07:30:38.205Z,93821.92
2019-05-26T07:33:07.710Z,93825.95
2019-05-26T07:35:37.209Z,93826.81
2019-05-26T07:38:06.693Z,93825.95
2019-05-26T07:40:36.200Z,93822.30
2019-05-26T07:43:05.695Z,93817.47
2019-05-26T07:45:35.193Z,93818.17
2019-05-26T07:48:04.821Z,93821.49
2019-05-26T07:50:34.403Z,93820.00
2019-05-26T07:53:04.028Z,93820.64
2019-05-26T07:55:33.610Z,93816.45
2019-05-26T07:58:03.173Z,93816.44
2019-05-26T08:00:32.649Z,93813.13
2019-05-26T08:03:02.158Z,93812.28
2019-05-26T08:05:31.721Z,93814.84
2019-05-26T08:08:11.971Z,93812.25
2019-05-26T08:10:32.413Z,93817.66
2019-05-26T08:13:01.922Z,93825.30
2019-05-26T08:15:31.408Z,93823.05
2019-05-26T08:18:00.917Z,93815.15
2019-05-26T08:20:30.404Z,93819.75
2019-05-26T08:22:59.896Z,93815.44
2019-05-26T08:25:29.416Z,93821.52
2019-05-26T08:27:59.006Z,93812.66
2019-05-26T08:30:28.508Z,93812.73
2019-05-26T08:32:58.011Z,93808.89
2019-05-26T08:35:27.522Z,93815.80
2019-05-26T08:37:57.006Z,93813.70
2019-05-26T08:40:26.792Z,93812.42
2019-05-26T08:42:56.282Z,93818.14
2019-05-26T08:45:25.937Z,93814.09
2019-05-26T08:47:55.499Z,93816.53
2019-05-26T08:50:25.135Z,93809.59
2019-05-26T08:52:54.626Z,93811.25
2019-05-26T08:55:24.199Z,93806.88
2019-05-26T08:57:53.707Z,93806.63
2019-05-26T09:00:24.809Z,93800.34
2019-05-26T09:02:54.369Z,93799.41
2019-05-26T09:05:23.885Z,93795.49
2019-05-26T09:07:53.390Z,93801.03
2019-05-26T09:10:23.105Z,93800.50
2019-05-26T09:13:00.741Z,93801.92
2019-05-26T09:15:23.935Z,93799.73
2019-05-26T09:17:53.433Z,93799.96
2019-05-26T09:20:23.381Z,93801.39
2019-05-26T09:22:52.937Z,93797.48
2019-05-26T09:25:22.511Z,93800.81
2019-05-26T09:27:52.007Z,93796.43
2019-05-26T09:30:21.941Z,93790.84
2019-05-26T09:32:51.450Z,93790.39
2019-05-26T09:35:20.941Z,93787.52
2019-05-26T09:37:50.519Z,93783.08
2019-05-26T09:40:20.276Z,93782.07
2019-05-26T09:42:49.763Z,93781.05
2019-05-26T09:45:19.954Z,93779.31
2019-05-26T09:47:49.497Z,93774.65
2019-05-26T09:50:19.143Z,93778.89
2019-05-26T09:52:48.643Z,93775.02
2019-05-26T09:55:18.514Z,93776.30
2019-05-26T09:57:48.081Z,93778.48
2019-05-26T10:00:20.486Z,93771.22
2019-05-26T10:02:49.973Z,93777.72
2019-05-26T10:05:19.540Z,93776.09
2019-05-26T10:07:49.141Z,93775.52
2019-05-26T10:10:19.923Z,93774.22
2019-05-26T10:12:49.458Z,93771.72
2019-05-26T10:15:19.102Z,93768.46
2019-05-26T10:17:48.615Z,93767.47
2019-05-26T10:20:18.250Z,93767.56
2019-05-26T10:22:47.797Z,93765.54
2019-05-26T10:25:17.474Z,93764.58
2019-05-26T10:27:46.963Z,93761.67
2019-05-26T10:30:18.299Z,93757.08
2019-05-26T10:32:47.772Z,93767.14
2019-05-26T10:35:17.358Z,93762.50
2019-05-26T10:37:46.843Z,93762.20
2019-05-26T10:40:16.952Z,93762.24
2019-05-26T10:42:46.462Z,93758.47
2019-05-26T10:45:16.179Z,93761.55
2019-05-26T10:47:45.814Z,93760.49
2019-05-26T10:50:16.011Z,93762.73
2019-05-26T10:52:45.520Z,93752.19
2019-05-26T10:55:15.071Z,93754.88
2019-05-26T10:57:44.621Z,93748.09
2019-05-26T11:00:14.719Z,93748.81
2019-05-26T11:02:44.223Z,93751.45
2019-05-26T11:05:14.095Z,93749.07
2019-05-26T11:07:43.603Z,93745.53
2019-05-26T11:10:13.857Z,93747.52
2019-05-26T11:12:43.440Z,93740.64
2019-05-26T11:15:14.323Z,93741.39
2019-05-26T11:17:43.818Z,93741.24
2019-05-26T11:20:14.558Z,93680.09
2019-05-26T11:22:44.107Z,93737.63
2019-05-26T11:25:14.967Z,93737.35
2019-05-26T11:27:44.461Z,93732.77
2019-05-26T11:30:15.376Z,93733.33
2019-05-26T11:32:44.857Z,93728.70
2019-05-26T11:35:14.728Z,93728.56
2019-05-26T11:37:44.219Z,93728.23
2019-05-26T11:40:14.571Z,93729.09
2019-05-26T11:42:45.210Z,93718.61
2019-05-26T11:45:17.247Z,93717.72
2019-05-26T11:47:46.827Z,93713.55
2019-05-26T11:50:19.241Z,93724.38
2019-05-26T11:52:49.500Z,93717.94
2019-05-26T11:55:19.146Z,93717.49
2019-05-26T11:57:48.707Z,93715.90
2019-05-26T12:00:19.358Z,93712.38
2019-05-26T12:02:48.855Z,93708.69
2019-05-26T12:05:37.963Z,93709.70
2019-05-26T12:08:07.524Z,93708.11
2019-05-26T12:10:37.104Z,93711.20
2019-05-26T12:13:06.605Z,93709.17
2019-05-26T12:15:36.116Z,93708.45
2019-05-26T12:18:06.342Z,93700.17
2019-05-26T12:20:35.859Z,93695.23
2019-05-26T12:23:05.396Z,93699.50
2019-05-26T12:25:34.983Z,93696.66
2019-05-26T12:28:04.604Z,93697.73
2019-05-26T12:30:34.100Z,93692.90
2019-05-26T12:33:03.672Z,93692.59
2019-05-26T12:35:33.242Z,93683.16
2019-05-26T12:38:02.736Z,93690.08
2019-05-26T12:40:32.219Z,93691.52
2019-05-26T12:43:01.720Z,93687.06
2019-05-26T12:45:31.198Z,93682.14
2019-05-26T12:48:00.734Z,93680.31
2019-05-26T12:50:30.218Z,93679.82
2019-05-26T12:52:59.791Z,93681.95
2019-05-26T12:55:29.345Z,93676.61
2019-05-26T12:57:58.854Z,93672.33
2019-05-26T13:00:28.352Z,93671.80
2019-05-26T13:02:58.028Z,93666.81
2019-05-26T13:05:27.700Z,93670.93
2019-05-26T13:07:57.214Z,93673.47
2019-05-26T13:10:26.788Z,93668.89
2019-05-26T13:12:56.311Z,93667.23
2019-05-26T13:15:26.030Z,93612.76
2019-05-26T13:17:55.572Z,93666.72
2019-05-26T13:20:25.287Z,93664.34
2019-05-26T13:22:54.913Z,93661.04
2019-05-26T13:25:24.590Z,93659.15
2019-05-26T13:27:54.083Z,93660.00
2019-05-26T13:30:25.013Z,93654.25
2019-05-26T13:32:54.500Z,93653.56
2019-05-26T13:35:24.140Z,93653.83
2019-05-26T13:37:53.708Z,93653.70
2019-05-26T13:40:23.351Z,93651.64
2019-05-26T13:42:52.875Z,93649.17
2019-05-26T13:45:23.460Z,93646.65
2019-05-26T13:47:53.263Z,93643.44
2019-05-26T13:50:23.287Z,93638.15
2019-05-26T13:52:52.797Z,93640.75
2019-05-26T13:55:22.389Z,93639.52
2019-05-26T13:57:51.948Z,93638.48
2019-05-26T14:00:23.361Z,93640.75
2019-05-26T14:02:52.985Z,93636.78
2019-05-26T14:05:22.571Z,93638.86
2019-05-26T14:07:52.052Z,93639.59
2019-05-26T14:10:35.887Z,93640.44
2019-05-26T14:13:08.576Z,93641.78
2019-05-26T14:15:39.351Z,93643.30
2019-05-26T14:18:09.193Z,93638.55
2019-05-26T14:20:40.835Z,93643.62
2019-05-26T14:23:10.784Z,93638.02
2019-05-26T14:25:40.347Z,93639.74
2019-05-26T14:28:09.903Z,93584.03
2019-05-26T14:30:39.397Z,93643.72
2019-05-26T14:33:08.968Z,93643.08
2019-05-26T14:35:38.534Z,93635.41
2019-05-26T14:38:08.111Z,93638.52
2019-05-26T14:40:37.582Z,93633.05
2019-05-26T14:43:07.162Z,93624.39
2019-05-26T14:45:52.028Z,93628.66
2019-05-26T14:48:08.175Z,93627.63
2019-05-26T14:50:40.714Z,93632.16
2019-05-26T14:53:08.860Z,93630.95
2019-05-26T14:55:38.343Z,93633.41
2019-05-26T14:58:15.788Z,93638.66
2019-05-26T15:00:39.032Z,93635.08
2019-05-26T15:03:08.582Z,93633.08
2019-05-26T15:05:38.080Z,93629.17
2019-05-26T15:08:07.603Z,93627.67
2019-05-26T15:10:37.104Z,93626.52
2019-05-26T15:13:06.685Z,93623.64
2019-05-26T15:15:36.157Z,93621.30
2019-05-26T15:18:05.740Z,93620.33
2019-05-26T15:20:35.237Z,93618.42
2019-05-26T15:23:24.090Z,93613.43
2019-05-26T15:25:53.577Z,93610.84
2019-05-26T15:28:23.145Z,93616.13
2019-05-26T15:30:52.694Z,93611.60
2019-05-26T15:33:22.234Z,93615.17
2019-05-26T15:35:51.723Z,93611.39
2019-05-26T15:38:21.239Z,93611.88
2019-05-26T15:40:50.777Z,93601.77
2019-05-26T15:43:20.322Z,93594.94
2019-05-26T15:45:49.811Z,93599.69
2019-05-26T15:48:19.293Z,93598.02
2019-05-26T15:50:49.058Z,93594.92
2019-05-26T15:53:18.603Z,93591.53
2019-05-26T15:55:48.111Z,93591.91
2019-05-26T15:58:18.924Z,93591.55
2019-05-26T16:00:48.478Z,93588.78
2019-05-26T16:03:18.050Z,93587.58
2019-05-26T16:05:47.562Z,93586.66
2019-05-26T16:08:17.155Z,93587.78
2019-05-26T16:10:46.815Z,93587.69
2019-05-26T16:13:16.463Z,93581.23
2019-05-26T16:15:45.964Z,93586.13
2019-05-26T16:18:16.526Z,93585.55
2019-05-26T16:20:46.006Z,93579.97
2019-05-26T16:23:15.532Z,93580.37
2019-05-26T16:25:45.009Z,93581.13
2019-05-26T16:28:14.515Z,93572.06
2019-05-26T16:30:44.012Z,93569.03
2019-05-26T16:33:13.534Z,93570.44
2019-05-26T16:35:43.028Z,93564.30
2019-05-26T16:38:12.542Z,93559.16
2019-05-26T16:40:42.022Z,93560.22
2019-05-26T16:43:11.528Z,93559.38
2019-05-26T16:45:55.243Z,93561.97
2019-05-26T16:48:12.349Z,93555.12
2019-05-26T16:50:41.908Z,93557.32
2019-05-26T16:53:11.511Z,93550.12
2019-05-26T16:55:42.600Z,93552.03
2019-05-26T16:58:12.100Z,93551.00
2019-05-26T17:00:41.628Z,93550.62
2019-05-26T17:03:11.159Z,93549.77
2019-05-26T17:05:40.675Z,93545.80
2019-05-26T17:08:10.159Z,93546.13
2019-05-26T17:10:39.670Z,93540.02
2019-05-26T17:13:09.149Z,93539.47
2019-05-26T17:15:38.649Z,93541.44
2019-05-26T17:18:08.225Z,93534.41
2019-05-26T17:20:37.726Z,93531.13
2019-05-26T17:23:08.380Z,93528.70
2019-05-26T17:25:37.878Z,93519.48
2019-05-26T17:28:07.377Z,93523.71
2019-05-26T17:30:36.939Z,93525.44
2019-05-26T17:33:06.591Z,93521.66
2019-05-26T17:35:36.148Z,93520.94
2019-05-26T17:38:05.748Z,93527.08
2019-05-26T17:40:35.299Z,93520.75
2019-05-26T17:43:04.916Z,93519.66
2019-05-26T17:45:34.407Z,93525.25
2019-05-26T17:48:03.988Z,93521.69
2019-05-26T17:50:33.473Z,93521.19
2019-05-26T17:53:02.983Z,93515.29
2019-05-26T17:55:32.467Z,93513.14
2019-05-26T17:58:01.986Z,93514.91
2019-05-26T18:00:31.627Z,93514.23
2019-05-26T18:03:01.164Z,93513.84
2019-05-26T18:05:31.793Z,93510.16
2019-05-26T18:08:01.386Z,93507.16
2019-05-26T18:10:50.357Z,93505.20
2019-05-26T18:13:20.109Z,93506.06
2019-05-26T18:15:49.834Z,93509.34
2019-05-26T18:18:19.400Z,93505.41
2019-05-26T18:20:48.958Z,93507.12
2019-05-26T18:23:18.458Z,93506.92
2019-05-26T18:25:47.959Z,93507.23
2019-05-26T18:28:17.541Z,93507.05
2019-05-26T18:30:47.038Z,93497.36
2019-05-26T18:33:16.675Z,93504.16
2019-05-26T18:35:46.179Z,93501.47
2019-05-26T18:38:15.768Z,93505.84
2019-05-26T18:40:45.249Z,93502.25
2019-05-26T18:43:14.826Z,93500.09
2019-05-26T18:45:44.386Z,93502.52
2019-05-26T18:48:13.965Z,93509.19
2019-05-26T18:50:43.528Z,93505.99
2019-05-26T18:53:13.029Z,93507.89
2019-05-26T18:55:42.520Z,93506.39
2019-05-26T18:58:12.109Z,93512.03
2019-05-26T19:00:42.655Z,93515.77
2019-05-26T19:03:12.186Z,93514.10
2019-05-26T19:05:41.681Z,93514.58
2019-05-26T19:08:11.260Z,93514.76
2019-05-26T19:10:40.835Z,93516.84
2019-05-26T19:13:10.824Z,93513.59
2019-05-26T19:15:40.367Z,93521.08
2019-05-26T19:18:19.222Z,93521.75
2019-05-26T19:20:41.213Z,93524.86
2019-05-26T19:23:10.769Z,93523.73
2019-05-26T19:25:40.263Z,93522.20
2019-05-26T19:28:09.892Z,93519.67
2019-05-26T19:30:39.403Z,93522.54
2019-05-26T19:33:08.900Z,93524.05
2019-05-26T19:35:38.399Z,93520.16
2019-05-26T19:38:07.897Z,93518.09
2019-05-26T19:40:37.425Z,93514.22
2019-05-26T19:43:06.905Z,93518.91
2019-05-26T19:45:36.415Z,93515.39
2019-05-26T19:48:06.297Z,93519.34
2019-05-26T19:50:35.808Z,93521.09
2019-05-26T19:53:05.454Z,93518.68
2019-05-26T19:55:34.973Z,93523.36
2019-05-26T19:58:04.659Z,93522.58
2019-05-26T20:00:34.372Z,93521.48
2019-05-26T20:03:03.999Z,93520.94
2019-05-26T20:05:33.593Z,93521.41
2019-05-26T20:08:03.217Z,93520.02
2019-05-26T20:10:32.746Z,93518.61
2019-05-26T20:13:02.237Z,93516.16
2019-05-26T20:15:31.805Z,93515.56
2019-05-26T20:18:01.521Z,93513.69
2019-05-26T20:20:31.117Z,93517.19
2019-05-26T20:23:00.681Z,93513.09
2019-05-26T20:25:30.251Z,93513.54
2019-05-26T20:27:59.739Z,93520.63
2019-05-26T20:30:29.254Z,93524.55
2019-05-26T20:32:58.743Z,93519.91
2019-05-26T20:35:28.336Z,93521.10
2019-05-26T20:37:57.810Z,93521.53
2019-05-26T20:40:46.666Z,93523.89
2019-05-26T20:43:16.162Z,93527.55
2019-05-26T20:45:45.672Z,93528.56
2019-05-26T20:48:15.170Z,93528.66
2019-05-26T20:50:44.695Z,93525.92
2019-05-26T20:53:14.187Z,93525.89
2019-05-26T20:55:43.743Z,93533.98
2019-05-26T20:58:13.256Z,93534.27
2019-05-26T21:00:42.756Z,93536.63
2019-05-26T21:03:12.270Z,93540.34
2019-05-26T21:05:41.760Z,93545.22
2019-05-26T21:08:11.256Z,93541.94
2019-05-26T21:10:40.750Z,93541.00
2019-05-26T21:13:10.273Z,93537.12
2019-05-26T21:15:39.758Z,93540.16
2019-05-26T21:18:09.249Z,93541.27
2019-05-26T21:20:38.750Z,93540.41
2019-05-26T21:23:08.303Z,93550.80
2019-05-26T21:25:37.918Z,93544.91
2019-05-26T21:28:07.409Z,93542.78
2019-05-26T21:30:36.923Z,93541.70
2019-05-26T21:33:06.419Z,93540.66
2019-05-26T21:35:35.898Z,93536.53
2019-05-26T21:38:05.477Z,93537.37
2019-05-26T21:40:34.974Z,93536.16
2019-05-26T21:43:04.630Z,93535.06
2019-05-26T21:45:34.181Z,93525.74
2019-05-26T21:48:03.861Z,93527.44
2019-05-26T21:50:33.351Z,93530.25
2019-05-26T21:53:02.851Z,93521.02
2019-05-26T21:55:32.335Z,93523.10
2019-05-26T21:58:01.818Z,93524.47
2019-05-26T22:00:31.825Z,93526.83
2019-05-26T22:03:02.151Z,93527.77
2019-05-26T22:05:31.665Z,93530.70
2019-05-26T22:08:01.152Z,93526.22
2019-05-26T22:10:30.665Z,93532.95
2019-05-26T22:13:01.226Z,93532.01
2019-05-26T22:15:30.802Z,93534.47
2019-05-26T22:18:00.294Z,93529.46
2019-05-26T22:20:29.876Z,93530.91
2019-05-26T22:22:59.375Z,93530.22
2019-05-26T22:25:28.866Z,93524.42
2019-05-26T22:27:58.394Z,93523.13
2019-05-26T22:30:27.883Z,93517.53
2019-05-26T22:32:57.656Z,93521.03
2019-05-26T22:35:27.217Z,93514.55
2019-05-26T22:37:56.729Z,93516.35
2019-05-26T22:40:26.215Z,93513.42
2019-05-26T22:42:55.731Z,93507.57
2019-05-26T22:45:25.214Z,93501.38
2019-05-26T22:47:54.720Z,93496.69
2019-05-26T22:50:24.208Z,93499.37
2019-05-26T22:52:53.789Z,93500.88
2019-05-26T22:55:23.287Z,93497.06
2019-05-26T22:57:52.776Z,93490.73
2019-05-26T23:00:22.776Z,93491.86
2019-05-26T23:02:52.264Z,93489.95
2019-05-26T23:05:21.770Z,93489.25
2019-05-26T23:07:51.258Z,93483.05
2019-05-26T23:10:20.842Z,93484.42
2019-05-26T23:12:50.328Z,93484.20
2019-05-26T23:15:20.076Z,93483.63
2019-05-26T23:17:49.558Z,93477.02
2019-05-26T23:20:19.138Z,93479.38
2019-05-26T23:22:48.696Z,93481.80
2019-05-26T23:25:18.342Z,93482.88
2019-05-26T23:27:47.830Z,93478.00
2019-05-26T23:30:18.341Z,93476.91
2019-05-26T23:32:47.820Z,93474.50
2019-05-26T23:35:17.398Z,93470.96
2019-05-26T23:37:46.951Z,93464.58
2019-05-26T23:40:17.088Z,93464.38
2019-05-26T23:42:47.661Z,93465.72
2019-05-26T23:45:17.297Z,93459.23
2019-05-26T23:47:46.803Z,93460.39
2019-05-26T23:50:16.357Z,93451.86
2019-05-26T23:52:45.855Z,93456.16
2019-05-26T23:55:15.814Z,93458.78
2019-05-26T23:57:45.476Z,93457.17
